地図

経路データ

SID SEASON NUMBER BASIN SUBBASIN NAME ISO_TIME NATURE LAT LON WMO_WIND WMO_PRES WMO_AGENCY TRACK_TYPE DIST2LAND LANDFALL IFLAG USA_AGENCY USA_ATCF_ID USA_LAT USA_LON USA_RECORD USA_STATUS USA_WIND USA_PRES USA_SSHS USA_R34_NE USA_R34_SE USA_R34_SW USA_R34_NW USA_R50_NE USA_R50_SE USA_R50_SW USA_R50_NW USA_R64_NE USA_R64_SE USA_R64_SW USA_R64_NW USA_POCI USA_ROCI USA_RMW USA_EYE TOKYO_LAT TOKYO_LON TOKYO_GRADE TOKYO_WIND TOKYO_PRES TOKYO_R50_DIR TOKYO_R50_LONG TOKYO_R50_SHORT TOKYO_R30_DIR TOKYO_R30_LONG TOKYO_R30_SHORT TOKYO_LAND CMA_LAT CMA_LON CMA_CAT CMA_WIND CMA_PRES HKO_LAT HKO_LON HKO_CAT HKO_WIND HKO_PRES NEWDELHI_LAT NEWDELHI_LON NEWDELHI_GRADE NEWDELHI_WIND NEWDELHI_PRES NEWDELHI_CI NEWDELHI_DP NEWDELHI_POCI REUNION_LAT REUNION_LON REUNION_TYPE REUNION_WIND REUNION_PRES REUNION_TNUM REUNION_CI REUNION_RMW REUNION_R34_NE REUNION_R34_SE REUNION_R34_SW REUNION_R34_NW REUNION_R50_NE REUNION_R50_SE REUNION_R50_SW REUNION_R50_NW REUNION_R64_NE REUNION_R64_SE REUNION_R64_SW REUNION_R64_NW BOM_LAT BOM_LON BOM_TYPE BOM_WIND BOM_PRES BOM_TNUM BOM_CI BOM_RMW BOM_R34_NE BOM_R34_SE BOM_R34_SW BOM_R34_NW BOM_R50_NE BOM_R50_SE BOM_R50_SW BOM_R50_NW BOM_R64_NE BOM_R64_SE BOM_R64_SW BOM_R64_NW BOM_ROCI BOM_POCI BOM_EYE BOM_POS_METHOD BOM_PRES_METHOD NADI_LAT NADI_LON NADI_CAT NADI_WIND NADI_PRES WELLINGTON_LAT WELLINGTON_LON WELLINGTON_WIND WELLINGTON_PRES DS824_LAT DS824_LON DS824_STAGE DS824_WIND DS824_PRES TD9636_LAT TD9636_LON TD9636_STAGE TD9636_WIND TD9636_PRES TD9635_LAT TD9635_LON TD9635_WIND TD9635_PRES TD9635_ROCI NEUMANN_LAT NEUMANN_LON NEUMANN_CLASS NEUMANN_WIND NEUMANN_PRES MLC_LAT MLC_LON MLC_CLASS MLC_WIND MLC_PRES USA_GUST BOM_GUST BOM_GUST_PER REUNION_GUST REUNION_GUST_PER USA_SEAHGT USA_SEARAD_NE USA_SEARAD_SE USA_SEARAD_SW USA_SEARAD_NW STORM_SPEED STORM_DIR
1983339N13257 1983 91 EP MM WINNIE 1983-12-04 12:00:00 TS 12.9000 -102.900 30 hurdat_epa main 529 501 O_________O___ hurdat_epa EP211983 12.9000 -102.900 TD 30 -1 12.9000 -102.900 1 30 14 315
1983339N13257 1983 91 EP MM WINNIE 1983-12-04 15:00:00 TS 13.4065 -103.424 main 501 486 P_________P___ EP211983 13.4454 -103.452 TD 30 -1 13.2899 -103.342 1 31 13 315
1983339N13257 1983 91 EP MM WINNIE 1983-12-04 18:00:00 TS 13.8459 -103.862 30 hurdat_epa main 489 454 O_________P___ hurdat_epa EP211983 13.9000 -103.900 TD 30 -1 13.6835 -103.748 1 32 11 318
1983339N13257 1983 91 EP MM WINNIE 1983-12-04 21:00:00 TS 14.1825 -104.146 main 454 429 P_________P___ EP211983 14.2148 -104.168 TD 32 -1 14.0853 -104.080 1 33 8 327
1983339N13257 1983 91 EP MM WINNIE 1983-12-05 00:00:00 TS 14.5000 -104.300 35 hurdat_epa main 429 390 O_________O___ hurdat_epa EP211983 14.5000 -104.300 TS 35 0 14.5000 -104.300 2 35 8 342
1983339N13257 1983 91 EP MM WINNIE 1983-12-05 03:00:00 TS 14.8957 -104.392 main 390 348 P_________P___ EP211983 14.8850 -104.395 TS 35 0 14.9281 -104.384 2 35 8 354
1983339N13257 1983 91 EP MM WINNIE 1983-12-05 06:00:00 TS 15.3130 -104.391 35 hurdat_epa main 348 303 O_________P___ hurdat_epa EP211983 15.3000 -104.400 TS 35 0 15.3521 -104.364 2 35 8 5
1983339N13257 1983 91 EP MM WINNIE 1983-12-05 09:00:00 TS 15.7294 -104.308 main 303 257 P_________P___ EP211983 15.7225 -104.315 TS 35 0 15.7501 -104.287 2 35 8 13
1983339N13257 1983 91 EP MM WINNIE 1983-12-05 12:00:00 TS 16.1000 -104.200 35 hurdat_epa main 257 221 O_________O___ hurdat_epa EP211983 16.1000 -104.200 TS 35 0 16.1000 -104.200 2 35 7 13
1983339N13257 1983 91 EP MM WINNIE 1983-12-05 15:00:00 TS 16.3880 -104.144 main 221 200 P_________P___ EP211983 16.3800 -104.135 TS 47 0 16.4118 -104.171 2 43 5 10
1983339N13257 1983 91 EP MM WINNIE 1983-12-05 18:00:00 TS 16.6175 -104.111 60 hurdat_epa main 200 179 O_________P___ hurdat_epa EP211983 16.6000 -104.100 TS 60 0 16.6700 -104.143 2 52 5 6
1983339N13257 1983 91 EP MM WINNIE 1983-12-05 21:00:00 TS 16.8451 -104.099 main 179 158 P_________P___ EP211983 16.8375 -104.092 TS 65 1 16.8681 -104.118 2 61 4 0
1983339N13257 1983 91 EP MM WINNIE 1983-12-06 00:00:00 TS 17.0000 -104.100 70 hurdat_epa main 158 158 O_________O___ hurdat_epa EP211983 17.0000 -104.100 HU 70 1 17.0000 -104.100 3 70 2 3
1983339N13257 1983 91 EP MM WINNIE 1983-12-06 03:00:00 TS 17.0387 -104.098 main 158 158 P_________P___ EP211983 17.0300 -104.100 HU 75 1 17.0647 -104.093 3 72 0 0
1983339N13257 1983 91 EP MM WINNIE 1983-12-06 06:00:00 TS 17.0169 -104.098 80 hurdat_epa main 158 158 O_________P___ hurdat_epa EP211983 17.0000 -104.100 HU 80 1 17.0675 -104.092 3 75 0 222
1983339N13257 1983 91 EP MM WINNIE 1983-12-06 09:00:00 TS 17.0091 -104.099 main 158 158 P_________P___ EP211983 17.0000 -104.100 HU 80 1 17.0366 -104.096 3 77 0 0
1983339N13257 1983 91 EP MM WINNIE 1983-12-06 12:00:00 TS 17.0000 -104.100 80 hurdat_epa main 158 158 O_________O___ hurdat_epa EP211983 17.0000 -104.100 HU 80 1 17.0000 -104.100 4 80 0 0
1983339N13257 1983 91 EP MM WINNIE 1983-12-06 15:00:00 TS 17.0000 -104.100 main 158 158 P_________P___ EP211983 17.0000 -104.100 HU 77 1 17.0000 -104.100 4 73 0 0
1983339N13257 1983 91 EP MM WINNIE 1983-12-06 18:00:00 TS 17.0000 -104.100 75 hurdat_epa main 158 158 O_________P___ hurdat_epa EP211983 17.0000 -104.100 HU 75 1 17.0000 -104.100 4 67 0 0
1983339N13257 1983 91 EP MM WINNIE 1983-12-06 21:00:00 TS 17.0000 -104.100 main 158 158 P_________P___ EP211983 17.0000 -104.100 HU 65 1 17.0000 -104.100 4 61 0 0
1983339N13257 1983 91 EP MM WINNIE 1983-12-07 00:00:00 TS 17.0000 -104.100 55 hurdat_epa main 158 158 O_________O___ hurdat_epa EP211983 17.0000 -104.100 TS 55 0 17.0000 -104.100 2 55 0 0
1983339N13257 1983 91 EP MM WINNIE 1983-12-07 03:00:00 TS 17.0000 -104.100 main 158 158 P_________P___ EP211983 17.0000 -104.100 TS 45 0 17.0000 -104.100 2 47 0 0
1983339N13257 1983 91 EP MM WINNIE 1983-12-07 06:00:00 TS 17.0000 -104.100 35 hurdat_epa main 158 158 O_________P___ hurdat_epa EP211983 17.0000 -104.100 TS 35 0 17.0000 -104.100 2 40 0 0
1983339N13257 1983 91 EP MM WINNIE 1983-12-07 09:00:00 TS 17.0000 -104.100 main 158 158 P_________P___ EP211983 17.0000 -104.100 TS 30 -1 17.0000 -104.100 2 32 0 0
1983339N13257 1983 91 EP MM WINNIE 1983-12-07 12:00:00 TS 17.0000 -104.100 25 hurdat_epa main 158 O_________O___ hurdat_epa EP211983 17.0000 -104.100 TD 25 -1 17.0000 -104.100 1 25 0 0

IBTrACS Databaseについて

本データベースは、米国NOAAが公開する1842年以降の世界の熱帯低気圧のベストトラックデータアーカイブInternational Best Track Archive for Climate Stewardship (IBTrACS)を、ウェブで閲覧しやすい形式に変換したものです。

最終更新日:2021-10-27